Terminal Aerodrome Forecast
Issued by NWS

Home | Current Version | Previous Version | Graphics & Text | Print | Product List | Glossary On
Versions: 1 2 3 4 5 6 7 8 9 10 11 12 13 14 15 16 17 18 19 20 21
000
FTUS43 KMPX 282300
TAFRNH
TAF
KRNH 282337Z 2900/2924 21004KT P6SM SCT060 BKN250
     FM290400 27004KT P6SM SCT080 BKN250
     FM290600 32006KT P6SM SCT080 BKN250
     FM290900 36006KT 6SM BR BKN020 OVC040
     FM291100 03008KT 4SM -RA BR BKN007 OVC012
     FM291700 04009KT P6SM SCT008 OVC018
     FM292100 04008KT P6SM BKN035=

USA.gov is the U.S. government's official web portal to all federal, state and local government web resources and services.